- বাংলা English

**** MARITIME PORTS OF CHITTAGONG, COX’S BAZAR, MONGLA AND PAYRA HAVE BEEN ADVISED TO HOIST  LOCAL CAUTIONARY SIGNAL NO.THREE (R) THREE****   Phone: +880 2913574

TAF

TAF VGHS 201700Z 2018/2124 16008KT 4000 HZ SCT015 BKN100
  BECMG 2020/2022 14008KT 3500 HZ SCT012 BKN100
  BECMG 2103/2105 12008KT 4000 HZ SCT015 BKN100
  TEMPO 2106/2118 18025KT 2000 RA/TSRA BKN007 FEW025CB OVC080
  BECMG 2118/2120 16008KT 3500 HZ SCT012 BKN100=

TAF VGEG 201700Z 2018/2124 15008KT 4500 HZ SCT018 SCT120
  TEMPO 2020/2104 18015G25KT 2000 RA/TSRA SCT007 FEW028CB OVC090
  BECMG 2105/2107 18012KT 5000 SCT018 SCT120
  BECMG 2112/2114 16008KT 4500 HZ SCT018 SCT120=

VGSY 201000Z 2012/2118 03005KT 4500HZ SCT015 BKN100
        BECMG 2018/2020 04004KT 4000HZ SCT015 BKN100
        BECMG 2023/2101 05004KT 3500HZ SCT012 BKN100
        TEMPO 2012/2118 32025G35KT 1500 RA/TSRA BKN006
        FEW025CB OVC080=